createdAt,value
2023-11-30T00:00:45.345Z,98385.25
2023-11-30T00:03:12.911Z,98378.50
2023-11-30T00:05:41.826Z,98375.88
2023-11-30T00:08:09.358Z,98379.56
2023-11-30T00:10:36.880Z,98378.09
2023-11-30T00:13:05.016Z,98355.31
2023-11-30T00:15:32.843Z,98372.69
2023-11-30T00:18:00.478Z,98360.47
2023-11-30T00:20:28.062Z,98353.50
2023-11-30T00:22:56.934Z,98341.16
2023-11-30T00:25:24.487Z,98346.13
2023-11-30T00:27:52.493Z,98341.81
2023-11-30T00:30:20.068Z,98345.28
2023-11-30T00:32:47.708Z,98337.56
2023-11-30T00:35:15.375Z,98333.88
2023-11-30T00:37:42.921Z,98334.00
2023-11-30T00:40:12.399Z,98332.09
2023-11-30T00:42:40.041Z,98344.22
2023-11-30T00:45:09.085Z,98339.16
2023-11-30T00:47:36.454Z,98336.41
2023-11-30T00:50:04.462Z,98334.63
2023-11-30T00:52:31.963Z,98333.53
2023-11-30T00:54:59.455Z,98337.13
2023-11-30T00:57:28.417Z,98335.09
2023-11-30T00:59:55.890Z,98349.97
2023-11-30T01:02:23.515Z,98347.22
2023-11-30T01:04:51.042Z,98346.25
2023-11-30T01:07:18.568Z,98351.06
2023-11-30T01:09:46.077Z,98333.66
2023-11-30T01:12:13.589Z,98328.50
2023-11-30T01:14:43.352Z,98321.41
2023-11-30T01:17:10.887Z,98317.84
2023-11-30T01:19:38.367Z,98314.66
2023-11-30T01:22:07.799Z,98313.09
2023-11-30T01:24:35.334Z,98296.97
2023-11-30T01:27:03.172Z,98291.44
2023-11-30T01:29:30.645Z,98284.81
2023-11-30T01:31:59.504Z,98290.84
2023-11-30T01:34:27.029Z,98292.53
2023-11-30T01:36:54.561Z,98293.47
2023-11-30T01:39:22.148Z,98294.94
2023-11-30T01:41:49.782Z,98305.47
2023-11-30T01:44:17.334Z,98307.78
2023-11-30T01:46:44.877Z,98297.44
2023-11-30T01:49:13.787Z,98301.66
2023-11-30T01:51:42.208Z,98292.91
2023-11-30T01:54:09.757Z,98292.53
2023-11-30T01:56:37.441Z,98287.41
2023-11-30T01:59:04.983Z,98291.34
2023-11-30T02:01:32.785Z,98287.03
2023-11-30T02:04:00.453Z,98272.88
2023-11-30T02:06:29.315Z,98281.75
2023-11-30T02:08:56.867Z,98273.84
2023-11-30T02:11:24.394Z,98271.09
2023-11-30T02:13:51.983Z,98270.38
2023-11-30T02:16:19.663Z,98257.91
2023-11-30T02:18:47.244Z,98252.84
2023-11-30T02:21:14.846Z,98256.34
2023-11-30T02:23:43.796Z,98268.34
2023-11-30T02:26:11.976Z,98263.53
2023-11-30T02:28:39.523Z,98250.94
2023-11-30T02:31:07.133Z,98248.41
2023-11-30T02:33:34.634Z,98237.75
2023-11-30T02:36:02.178Z,98232.34
2023-11-30T02:38:29.750Z,98220.97
2023-11-30T02:40:58.589Z,98229.72
2023-11-30T02:43:29.123Z,98232.13
2023-11-30T02:45:56.670Z,98231.50
2023-11-30T02:48:24.229Z,98235.34
2023-11-30T02:50:51.794Z,98234.75
2023-11-30T02:53:19.299Z,98234.88
2023-11-30T02:55:46.827Z,98228.88
2023-11-30T02:58:15.747Z,98235.72
2023-11-30T03:00:43.138Z,98233.78
2023-11-30T03:03:10.790Z,98238.34
2023-11-30T03:05:38.335Z,98236.78
2023-11-30T03:08:06.368Z,98240.63
2023-11-30T03:10:33.952Z,98233.66
2023-11-30T03:13:01.484Z,98238.09
2023-11-30T03:15:31.977Z,98227.56
2023-11-30T03:17:59.740Z,98222.28
2023-11-30T03:20:27.362Z,98220.59
2023-11-30T03:22:54.893Z,98223.97
2023-11-30T03:25:22.520Z,98212.81
2023-11-30T03:27:50.018Z,98209.81
2023-11-30T03:30:17.590Z,98204.28
2023-11-30T03:32:46.706Z,98205.00
2023-11-30T03:35:14.355Z,98207.78
2023-11-30T03:37:43.923Z,98209.56
2023-11-30T03:40:12.428Z,98215.19
2023-11-30T03:42:39.999Z,98210.03
2023-11-30T03:45:08.223Z,98209.56
2023-11-30T03:47:35.900Z,98204.75
2023-11-30T03:50:05.139Z,98202.97
2023-11-30T03:52:32.730Z,98202.84
2023-11-30T03:55:00.298Z,98211.47
2023-11-30T03:57:27.863Z,98212.19
2023-11-30T03:59:55.438Z,98214.72
2023-11-30T04:02:23.048Z,98210.28
2023-11-30T04:04:50.621Z,98210.03
2023-11-30T04:07:19.478Z,98211.25
2023-11-30T04:09:48.540Z,98202.97
2023-11-30T04:12:16.054Z,98204.53
2023-11-30T04:14:43.548Z,98206.31
2023-11-30T04:17:11.681Z,98201.78
2023-11-30T04:19:39.206Z,98200.44
2023-11-30T04:22:06.767Z,98197.69
2023-11-30T04:24:35.717Z,98205.72
2023-11-30T04:27:03.584Z,98199.75
2023-11-30T04:29:31.134Z,98201.19
2023-11-30T04:31:58.695Z,98196.75
2023-11-30T04:34:26.201Z,98193.03
2023-11-30T04:36:53.740Z,98187.03
2023-11-30T04:39:21.862Z,98189.66
2023-11-30T04:41:51.038Z,98192.19
2023-11-30T04:44:20.190Z,98184.97
2023-11-30T04:46:49.078Z,98188.59
2023-11-30T04:49:16.624Z,98185.47
2023-11-30T04:51:44.143Z,98178.75
2023-11-30T04:54:11.675Z,98171.06
2023-11-30T04:56:39.447Z,98180.91
2023-11-30T04:59:08.319Z,98183.31
2023-11-30T05:01:37.290Z,98182.47
2023-11-30T05:04:05.234Z,98185.34
2023-11-30T05:06:32.946Z,98176.47
2023-11-30T05:09:00.474Z,98178.97
2023-11-30T05:11:28.017Z,98181.75
2023-11-30T05:13:55.616Z,98177.06
2023-11-30T05:16:24.543Z,98174.44
2023-11-30T05:18:51.949Z,98170.00
2023-11-30T05:21:19.502Z,98163.50
2023-11-30T05:23:47.019Z,98154.16
2023-11-30T05:26:14.614Z,98146.00
2023-11-30T05:28:42.344Z,98143.13
2023-11-30T05:31:09.987Z,98136.88
2023-11-30T05:33:39.350Z,98126.81
2023-11-30T05:36:07.746Z,98127.19
2023-11-30T05:38:35.237Z,98141.31
2023-11-30T05:41:02.822Z,98172.75
2023-11-30T05:43:33.613Z,98181.25
2023-11-30T05:46:01.988Z,98185.81
2023-11-30T05:48:29.565Z,98182.47
2023-11-30T05:50:58.523Z,98189.19
2023-11-30T05:53:26.662Z,98192.06
2023-11-30T05:55:54.204Z,98186.91
2023-11-30T05:58:21.717Z,98178.88
2023-11-30T06:00:49.301Z,98185.69
2023-11-30T06:03:16.905Z,98195.28
2023-11-30T06:05:44.490Z,98170.47
2023-11-30T06:08:13.320Z,98170.00
2023-11-30T06:10:40.853Z,98177.28
2023-11-30T06:13:08.975Z,98173.94
2023-11-30T06:15:36.634Z,98169.00
2023-11-30T06:18:04.383Z,98170.94
2023-11-30T06:20:32.106Z,98181.50
2023-11-30T06:22:59.587Z,98174.41
2023-11-30T06:25:28.441Z,98171.19
2023-11-30T06:27:55.985Z,98174.53
2023-11-30T06:30:23.513Z,98177.91
2023-11-30T06:32:51.049Z,98177.38
2023-11-30T06:35:18.606Z,98174.88
2023-11-30T06:37:46.190Z,98170.69
2023-11-30T06:40:14.378Z,98175.56
2023-11-30T06:42:43.294Z,98167.81
2023-11-30T06:45:11.122Z,98163.81
2023-11-30T06:47:38.735Z,98174.72
2023-11-30T06:50:07.925Z,98173.53
2023-11-30T06:52:35.435Z,98167.53
2023-11-30T06:55:03.760Z,98170.75
2023-11-30T06:57:31.352Z,98175.22
2023-11-30T07:00:00.389Z,98170.06
2023-11-30T07:02:29.202Z,98160.34
2023-11-30T07:04:56.900Z,98165.59
2023-11-30T07:07:31.481Z,98160.34
2023-11-30T07:10:03.819Z,98166.56
2023-11-30T07:12:31.426Z,98166.56
2023-11-30T07:15:00.536Z,98168.50
2023-11-30T07:17:28.122Z,98170.41
2023-11-30T07:19:55.645Z,98166.56
2023-11-30T07:22:25.737Z,98162.00
2023-11-30T07:24:53.418Z,98166.44
2023-11-30T07:27:21.036Z,98162.00
2023-11-30T07:29:48.712Z,98173.03
2023-11-30T07:32:17.842Z,98166.19
2023-11-30T07:34:46.871Z,98171.97
2023-11-30T07:37:17.172Z,98170.16
2023-11-30T07:39:44.865Z,98171.13
2023-11-30T07:42:13.360Z,98161.28
2023-11-30T07:44:42.075Z,98165.84
2023-11-30T07:47:09.674Z,98164.06
2023-11-30T07:49:38.688Z,98168.25
2023-11-30T07:52:06.274Z,98176.03
2023-11-30T07:54:33.821Z,98176.75
2023-11-30T07:57:02.081Z,98176.75
2023-11-30T07:59:29.756Z,98169.94
2023-11-30T08:01:57.299Z,98167.81
2023-11-30T08:04:24.950Z,98165.84
2023-11-30T08:06:53.864Z,98168.25
2023-11-30T08:09:22.280Z,98177.00
2023-11-30T08:11:49.861Z,98176.63
2023-11-30T08:14:17.474Z,98170.53
2023-11-30T08:16:45.006Z,98162.84
2023-11-30T08:19:12.585Z,98154.94
2023-11-30T08:21:42.050Z,98158.28
2023-11-30T08:24:11.023Z,98152.03
2023-11-30T08:26:38.439Z,98151.91
2023-11-30T08:29:06.024Z,98159.13
2023-11-30T08:31:34.694Z,98155.41
2023-11-30T08:34:02.448Z,98150.84
2023-11-30T08:36:30.047Z,98144.97
2023-11-30T08:38:57.554Z,98145.91
2023-11-30T08:41:26.408Z,98156.22
2023-11-30T08:43:53.927Z,98157.78
2023-11-30T08:46:21.575Z,98155.28
2023-11-30T08:48:49.183Z,98148.31
2023-11-30T08:51:16.822Z,98151.78
2023-11-30T08:53:44.432Z,98152.03
2023-11-30T08:56:12.877Z,98145.44
2023-11-30T08:58:41.769Z,98143.63
2023-11-30T09:01:09.529Z,98134.03
2023-11-30T09:03:37.148Z,98142.19
2023-11-30T09:06:05.202Z,98140.53
2023-11-30T09:08:34.692Z,98135.97
2023-11-30T09:11:02.210Z,98134.03
2023-11-30T09:13:29.714Z,98139.31
2023-11-30T09:15:58.684Z,98139.44
2023-11-30T09:18:26.132Z,98134.16
2023-11-30T09:20:53.629Z,98137.25
2023-11-30T09:23:21.142Z,98143.38
2023-11-30T09:25:48.650Z,98136.09
2023-11-30T09:28:16.203Z,98138.34
2023-11-30T09:30:43.860Z,98141.13
2023-11-30T09:33:14.365Z,98138.47
2023-11-30T09:35:41.944Z,98139.56
2023-11-30T09:38:10.698Z,98140.88
2023-11-30T09:40:38.248Z,98139.78
2023-11-30T09:43:05.821Z,98136.53
2023-11-30T09:45:33.403Z,98137.25
2023-11-30T09:48:00.950Z,98143.25
2023-11-30T09:50:29.820Z,98142.88
2023-11-30T09:52:57.338Z,98145.66
2023-11-30T09:55:26.592Z,98141.34
2023-11-30T09:57:54.204Z,98137.59
2023-11-30T10:00:22.358Z,98142.16
2023-11-30T10:02:54.432Z,98147.56
2023-11-30T10:05:22.285Z,98149.25
2023-11-30T10:07:51.203Z,98141.22
2023-11-30T10:10:18.539Z,98139.16
2023-11-30T10:12:46.139Z,98140.38
2023-11-30T10:15:13.982Z,98129.81
2023-11-30T10:17:42.692Z,98129.69
2023-11-30T10:20:12.526Z,98120.22
2023-11-30T10:22:40.553Z,98118.41
2023-11-30T10:25:10.260Z,98112.16
2023-11-30T10:27:37.983Z,98109.28
2023-11-30T10:30:07.668Z,98106.03
2023-11-30T10:32:36.710Z,98098.75
2023-11-30T10:35:06.236Z,98113.50
2023-11-30T10:37:35.023Z,98118.06
2023-11-30T10:40:05.012Z,98114.59
2023-11-30T10:42:34.931Z,98116.00
2023-11-30T10:45:03.364Z,98108.34
2023-11-30T10:47:31.380Z,98105.81
2023-11-30T10:49:58.948Z,98112.41
2023-11-30T10:52:26.899Z,98112.78
2023-11-30T10:54:57.125Z,98110.16
2023-11-30T10:57:24.642Z,98108.69
2023-11-30T10:59:59.622Z,98109.31
2023-11-30T11:02:27.242Z,98106.41
2023-11-30T11:04:54.873Z,98111.66
2023-11-30T11:07:22.483Z,98109.28
2023-11-30T11:09:53.043Z,98110.94
2023-11-30T11:12:21.585Z,98109.28
2023-11-30T11:14:50.314Z,98119.00
2023-11-30T11:17:21.525Z,98116.22
2023-11-30T11:19:49.070Z,98122.34
2023-11-30T11:22:17.764Z,98125.94
2023-11-30T11:24:46.130Z,98126.91
2023-11-30T11:27:14.020Z,98122.34
2023-11-30T11:29:45.038Z,98125.69
2023-11-30T11:32:13.260Z,98128.34
2023-11-30T11:34:42.127Z,98128.84
2023-11-30T11:37:09.637Z,98117.31
2023-11-30T11:39:37.285Z,98116.47
2023-11-30T11:42:05.236Z,98126.19
2023-11-30T11:44:32.770Z,98118.28
2023-11-30T11:47:00.778Z,98117.31
2023-11-30T11:49:28.341Z,98106.84
2023-11-30T11:51:57.275Z,98112.03
2023-11-30T11:54:24.755Z,98113.94
2023-11-30T11:56:52.927Z,98118.50
2023-11-30T11:59:23.651Z,98109.47
2023-11-30T12:01:51.683Z,98109.16
2023-11-30T12:04:32.142Z,98095.94
2023-11-30T12:07:01.430Z,98092.09
2023-11-30T12:09:28.998Z,98099.16
2023-11-30T12:12:04.525Z,98094.59
2023-11-30T12:14:32.032Z,98095.56
2023-11-30T12:17:05.554Z,98100.97
2023-11-30T12:19:33.058Z,98090.41
2023-11-30T12:22:02.014Z,98084.66
2023-11-30T12:24:29.365Z,98083.06
2023-11-30T12:26:56.970Z,98087.28
2023-11-30T12:29:24.490Z,98083.81
2023-11-30T12:31:53.538Z,98089.94
2023-11-30T12:34:22.424Z,98090.53
2023-11-30T12:36:51.573Z,98085.50
2023-11-30T12:39:21.751Z,98090.78
2023-11-30T12:41:49.139Z,98089.31
2023-11-30T12:44:17.203Z,98085.50
2023-11-30T12:46:45.450Z,98089.94
2023-11-30T12:49:13.088Z,98079.13
2023-11-30T12:51:40.701Z,98080.78
2023-11-30T12:54:08.903Z,98082.13
2023-11-30T12:56:37.823Z,98084.66
2023-11-30T12:59:05.399Z,98084.88
2023-11-30T13:01:32.954Z,98081.31
2023-11-30T13:04:01.522Z,98079.25
2023-11-30T13:06:29.247Z,98091.50
2023-11-30T13:08:56.776Z,98084.16
2023-11-30T13:11:25.011Z,98086.59
2023-11-30T13:13:55.912Z,98084.88
2023-11-30T13:16:23.597Z,98085.50
2023-11-30T13:18:51.298Z,98081.06
2023-11-30T13:21:18.946Z,98079.44
2023-11-30T13:23:46.493Z,98089.19
2023-11-30T13:26:14.080Z,98092.78
2023-11-30T13:28:47.691Z,98096.25
2023-11-30T13:31:21.179Z,98090.13
2023-11-30T13:33:48.854Z,98099.41
2023-11-30T13:36:16.872Z,98103.09
2023-11-30T13:38:44.420Z,98100.06
2023-11-30T13:41:11.994Z,98101.28
2023-11-30T13:43:39.665Z,98102.13
2023-11-30T13:46:13.870Z,98101.41
2023-11-30T13:48:42.844Z,98097.22
2023-11-30T13:51:10.464Z,98106.44
2023-11-30T13:53:39.347Z,98109.59
2023-11-30T13:56:07.806Z,98104.06
2023-11-30T13:58:35.317Z,98095.56
2023-11-30T14:01:02.896Z,98106.94
2023-11-30T14:03:30.570Z,98108.38
2023-11-30T14:05:59.481Z,98109.97
2023-11-30T14:08:27.728Z,98106.94
2023-11-30T14:10:55.310Z,98113.19
2023-11-30T14:13:22.821Z,98110.31
2023-11-30T14:15:50.381Z,98101.28
2023-11-30T14:18:18.334Z,98107.91
2023-11-30T14:20:45.950Z,98101.41
2023-11-30T14:23:14.895Z,98102.38
2023-11-30T14:25:42.730Z,98110.56
2023-11-30T14:28:12.812Z,98105.84
2023-11-30T14:30:41.625Z,98109.97
2023-11-30T14:33:12.331Z,98114.16
2023-11-30T14:35:41.553Z,98124.72
2023-11-30T14:38:09.472Z,98118.22
2023-11-30T14:40:38.648Z,98119.31
2023-11-30T14:43:06.977Z,98121.84
2023-11-30T14:45:34.584Z,98130.72
2023-11-30T14:48:02.250Z,98127.84
2023-11-30T14:50:29.803Z,98127.56
2023-11-30T14:52:57.391Z,98121.97
2023-11-30T14:55:24.884Z,98130.59
2023-11-30T14:57:55.128Z,98124.22
2023-11-30T15:00:24.279Z,98122.81
2023-11-30T15:02:53.769Z,98126.75
2023-11-30T15:05:21.505Z,98125.44
2023-11-30T15:07:49.093Z,98125.56
2023-11-30T15:10:18.239Z,98130.72
2023-11-30T15:12:45.847Z,98127.56
2023-11-30T15:15:16.482Z,98131.19
2023-11-30T15:17:45.082Z,98138.16
2023-11-30T15:20:13.848Z,98139.94
2023-11-30T15:22:41.469Z,98142.00
2023-11-30T15:25:11.182Z,98132.16
2023-11-30T15:27:38.843Z,98136.47
2023-11-30T15:30:08.898Z,98146.91
2023-11-30T15:32:37.827Z,98147.28
2023-11-30T15:35:05.917Z,98146.78
2023-11-30T15:37:36.133Z,98142.34
2023-11-30T15:40:06.514Z,98140.19
2023-11-30T15:42:34.549Z,98132.03
2023-11-30T15:45:02.123Z,98134.53
2023-11-30T15:47:29.701Z,98132.84
2023-11-30T15:49:59.048Z,98135.03
2023-11-30T15:52:26.742Z,98137.31
2023-11-30T15:54:54.501Z,98134.78
2023-11-30T15:57:23.936Z,98144.38
2023-11-30T15:59:51.478Z,98145.34
2023-11-30T16:02:19.049Z,98148.47
2023-11-30T16:04:46.744Z,98148.72
2023-11-30T16:07:15.656Z,98148.59
2023-11-30T16:09:45.008Z,98155.53
2023-11-30T16:12:12.602Z,98150.13
2023-11-30T16:14:40.963Z,98155.91
2023-11-30T16:17:09.032Z,98163.84
2023-11-30T16:19:36.635Z,98167.69
2023-11-30T16:22:04.741Z,98166.63
2023-11-30T16:24:33.713Z,98173.44
2023-11-30T16:27:01.762Z,98166.38
2023-11-30T16:33:20.417Z,98171.66
2023-11-30T16:35:48.676Z,98164.81
2023-11-30T16:38:16.229Z,98162.63
2023-11-30T16:40:45.137Z,98166.50
2023-11-30T16:43:12.698Z,98175.38
2023-11-30T16:45:40.297Z,98170.56
2023-11-30T16:48:07.865Z,98166.63
2023-11-30T16:50:35.516Z,98173.94
2023-11-30T16:53:04.795Z,98172.03
2023-11-30T16:55:32.799Z,98179.22
2023-11-30T16:58:01.767Z,98179.94
2023-11-30T17:00:29.165Z,98173.94
2023-11-30T17:02:57.111Z,98186.19
2023-11-30T17:05:24.797Z,98178.16
2023-11-30T17:07:52.549Z,98177.31
2023-11-30T17:10:20.064Z,98178.41
2023-11-30T17:12:47.642Z,98185.34
2023-11-30T17:15:18.221Z,98177.44
2023-11-30T17:17:46.998Z,98180.44
2023-11-30T17:20:14.706Z,98180.06
2023-11-30T17:22:42.741Z,98178.16
2023-11-30T17:25:10.694Z,98174.41
2023-11-30T17:27:38.271Z,98186.19
2023-11-30T17:30:06.454Z,98179.09
2023-11-30T17:32:35.464Z,98179.81
2023-11-30T17:35:03.298Z,98174.78
2023-11-30T17:37:31.080Z,98171.44
2023-11-30T17:39:58.702Z,98174.31
2023-11-30T17:42:26.243Z,98174.91
2023-11-30T17:44:53.805Z,98183.56
2023-11-30T17:47:21.437Z,98184.25
2023-11-30T17:49:50.330Z,98181.47
2023-11-30T17:52:17.741Z,98183.50
2023-11-30T17:54:45.289Z,98182.97
2023-11-30T17:57:12.803Z,98183.44
2023-11-30T17:59:40.301Z,98185.47
2023-11-30T18:02:07.916Z,98181.63
2023-11-30T18:04:35.745Z,98171.97
2023-11-30T18:07:08.523Z,98178.06
2023-11-30T18:12:03.407Z,98177.44
2023-11-30T18:14:32.974Z,98162.03
2023-11-30T18:17:00.789Z,98175.53
2023-11-30T18:19:28.360Z,98169.69
2023-11-30T18:21:55.951Z,98170.13
2023-11-30T18:24:30.634Z,98182.41
2023-11-30T18:26:58.572Z,98179.44
2023-11-30T18:29:26.217Z,98184.00
2023-11-30T18:31:53.845Z,98184.00
2023-11-30T18:34:21.464Z,98187.50
2023-11-30T18:36:49.058Z,98189.28
2023-11-30T18:39:16.806Z,98190.13
2023-11-30T18:41:45.755Z,98194.34
2023-11-30T18:44:13.169Z,98186.41
2023-11-30T18:46:40.785Z,98188.91
2023-11-30T18:49:08.619Z,98192.53
2023-11-30T18:51:36.901Z,98207.78
2023-11-30T18:54:04.660Z,98205.28
2023-11-30T18:56:32.311Z,98209.72
2023-11-30T18:59:01.711Z,98212.34
2023-11-30T19:01:30.504Z,98212.22
2023-11-30T19:03:58.401Z,98223.88
2023-11-30T19:06:25.989Z,98221.25
2023-11-30T19:08:54.125Z,98230.97
2023-11-30T19:11:22.497Z,98222.22
2023-11-30T19:13:50.084Z,98217.88
2023-11-30T19:16:19.194Z,98224.84
2023-11-30T19:18:48.589Z,98230.97
2023-11-30T19:21:16.840Z,98222.34
2023-11-30T19:23:46.131Z,98224.84
2023-11-30T19:26:13.964Z,98233.59
2023-11-30T19:28:41.556Z,98232.91
2023-11-30T19:31:09.367Z,98240.69
2023-11-30T19:33:38.321Z,98239.84
2023-11-30T19:36:06.127Z,98240.69
2023-11-30T19:38:33.844Z,98249.47
2023-11-30T19:41:01.541Z,98249.59
2023-11-30T19:43:29.159Z,98251.50
2023-11-30T19:45:59.745Z,98250.41
2023-11-30T19:48:28.840Z,98253.06
2023-11-30T19:50:57.807Z,98260.16
2023-11-30T19:53:25.210Z,98253.06
2023-11-30T19:55:52.873Z,98251.25
2023-11-30T19:58:20.438Z,98248.63
2023-11-30T20:00:49.263Z,98252.94
2023-11-30T20:03:16.869Z,98243.34
2023-11-30T20:05:44.550Z,98242.38
2023-11-30T20:08:13.442Z,98237.09
2023-11-30T20:10:40.801Z,98243.94
2023-11-30T20:13:08.313Z,98243.09
2023-11-30T20:15:36.029Z,98257.13
2023-11-30T20:18:05.076Z,98257.25
2023-11-30T20:20:32.661Z,98250.28
2023-11-30T20:23:01.393Z,98248.50
2023-11-30T20:25:30.285Z,98247.53
2023-11-30T20:27:57.671Z,98252.94
2023-11-30T20:30:26.283Z,98248.13
2023-11-30T20:32:53.916Z,98244.78
2023-11-30T20:35:21.476Z,98249.94
2023-11-30T20:37:50.233Z,98244.78
2023-11-30T20:40:17.838Z,98238.66
2023-11-30T20:42:46.850Z,98242.97
2023-11-30T20:45:15.805Z,98247.41
2023-11-30T20:47:43.187Z,98244.78
2023-11-30T20:50:10.810Z,98254.13
2023-11-30T20:52:38.367Z,98259.66
2023-11-30T20:55:06.803Z,98259.91
2023-11-30T20:57:36.147Z,98255.47
2023-11-30T21:00:07.144Z,98258.81
2023-11-30T21:02:35.031Z,98247.41
2023-11-30T21:05:02.726Z,98249.94
2023-11-30T21:07:30.362Z,98248.25
2023-11-30T21:09:58.105Z,98256.28
2023-11-30T21:12:26.026Z,98268.53
2023-11-30T21:14:53.578Z,98253.66
2023-11-30T21:17:22.469Z,98260.63
2023-11-30T21:19:50.014Z,98255.47
2023-11-30T21:22:17.596Z,98255.47
2023-11-30T21:24:45.950Z,98260.63
2023-11-30T21:27:13.796Z,98256.19
2023-11-30T21:29:41.767Z,98262.19
2023-11-30T21:32:10.012Z,98262.19
2023-11-30T21:34:40.842Z,98259.66
2023-11-30T21:37:08.497Z,98262.28
2023-11-30T21:39:36.231Z,98256.28
2023-11-30T21:42:03.929Z,98259.78
2023-11-30T21:44:31.468Z,98262.41
2023-11-30T21:46:59.136Z,98266.03
2023-11-30T21:49:26.652Z,98264.94
2023-11-30T21:51:55.603Z,98266.63
2023-11-30T21:54:22.978Z,98266.88
2023-11-30T21:56:50.586Z,98264.09
2023-11-30T21:59:18.555Z,98263.38
2023-11-30T22:01:47.222Z,98261.59
2023-11-30T22:04:15.022Z,98267.81
2023-11-30T22:06:44.374Z,98260.75
2023-11-30T22:09:13.288Z,98254.63
2023-11-30T22:11:43.565Z,98262.41
2023-11-30T22:14:11.441Z,98265.91
2023-11-30T22:16:40.926Z,98263.38
2023-11-30T22:19:08.724Z,98260.50
2023-11-30T22:21:36.355Z,98253.53
2023-11-30T22:24:03.898Z,98257.00
2023-11-30T22:26:32.752Z,98270.22
2023-11-30T22:29:02.791Z,98279.09
2023-11-30T22:31:34.376Z,98281.63
2023-11-30T22:34:02.288Z,98281.63
2023-11-30T22:36:29.879Z,98289.56
2023-11-30T22:38:58.215Z,98293.03
2023-11-30T22:41:25.824Z,98294.00
2023-11-30T22:43:54.705Z,98293.03
2023-11-30T22:46:22.335Z,98291.22
2023-11-30T22:48:51.008Z,98303.34
2023-11-30T22:51:18.946Z,98299.75
2023-11-30T22:53:46.664Z,98309.47
2023-11-30T22:56:18.101Z,98306.00
2023-11-30T22:58:45.802Z,98310.31
2023-11-30T23:01:15.319Z,98313.94
2023-11-30T23:03:44.428Z,98318.38
2023-11-30T23:06:12.243Z,98307.56
2023-11-30T23:08:39.803Z,98309.47
2023-11-30T23:11:08.767Z,98316.69
2023-11-30T23:13:36.113Z,98318.50
2023-11-30T23:16:03.906Z,98323.78
2023-11-30T23:18:33.086Z,98321.00
2023-11-30T23:21:00.730Z,98326.28
2023-11-30T23:23:28.329Z,98325.44
2023-11-30T23:25:55.892Z,98314.03
2023-11-30T23:28:23.440Z,98319.44
2023-11-30T23:30:51.004Z,98320.16
2023-11-30T23:33:18.519Z,98321.00
2023-11-30T23:35:47.459Z,98321.59
2023-11-30T23:38:14.949Z,98321.59
2023-11-30T23:40:42.544Z,98325.94
2023-11-30T23:43:10.124Z,98329.66
2023-11-30T23:45:37.731Z,98327.00
2023-11-30T23:48:05.944Z,98320.88
2023-11-30T23:50:33.469Z,98333.84
2023-11-30T23:53:02.403Z,98328.69
2023-11-30T23:55:29.805Z,98338.41
2023-11-30T23:57:57.851Z,98337.47
